Cayman Brac, Cayman Islands
Current Conditions -  °F | °C
As of 6:51 AM on Friday 26 Dec 2014 (Local Time) from MWCR Reporting Station
Few Clouds Few Clouds  
Wind Chill: 79°   Ceiling: Unl
Heat Index: 83°   Visibility: 6mi
Dew Point: 77°   Wind: 14mph
Humidity: 94%   Direction: 60°ENE
Pressure: 30"   Gusts: NA
Location:  19.72°N, 79.81°W
Report Text: MWCR 261151Z 06012KT 9999 FEW018 26/25 Q1016 NOSIG
Loading
Personal Weather Stations






























Interactive Weather Map New forecast layout! Learn more

10-Day Weather Forecast

Advertisements
Track Severe Weather on mobile